Harbor Springs, Michigan
Current Conditions -  °F | °C
As of 9:14 AM on Wednesday 26 Nov 2014 (Local Time) from KMGN Reporting Station
Overcast Overcast  
Wind Chill: 26°   Ceiling: 3100
Heat Index: 26°   Visibility: 10mi
Dew Point: 19°   Wind: 0mph
Humidity: 77%   Direction: NA
Pressure: 30.18"   Gusts: NA
Location:  45.43°N, 84.99°W
Report Text: KMGN 261414Z AUTO 00000KT 10SM OVC031 M03/M07 A3018 RMK AO2 T10361071
Loading
Personal Weather Stations






























Interactive Weather Map New forecast layout! Learn more

10-Day Weather Forecast

Advertisements
Track Severe Weather on mobile